createdAt,value
2018-06-15T00:00:56.870Z,15.21
2018-06-15T00:01:56.641Z,15.24
2018-06-15T00:03:20.104Z,15.22
2018-06-15T00:04:21.251Z,15.22
2018-06-15T00:05:20.122Z,15.25
2018-06-15T00:06:20.567Z,15.27
2018-06-15T00:07:20.702Z,15.24
2018-06-15T00:08:42.625Z,15.22
2018-06-15T00:09:46.320Z,15.21
2018-06-15T00:10:43.561Z,15.21
2018-06-15T00:11:42.577Z,15.21
2018-06-15T00:12:43.983Z,15.21
2018-06-15T00:13:43.341Z,15.21
2018-06-15T00:14:44.121Z,15.22
2018-06-15T00:16:05.361Z,15.24
2018-06-15T00:17:06.543Z,15.24
2018-06-15T00:18:05.808Z,15.22
2018-06-15T00:19:06.868Z,15.24
2018-06-15T00:20:06.590Z,15.28
2018-06-15T00:21:06.402Z,15.27
2018-06-15T00:22:05.503Z,15.25
2018-06-15T00:23:05.395Z,15.27
2018-06-15T00:24:05.566Z,15.27
2018-06-15T00:25:29.750Z,15.25
2018-06-15T00:26:49.910Z,15.25
2018-06-15T00:27:51.421Z,15.25
2018-06-15T00:28:50.558Z,15.25
2018-06-15T00:29:50.857Z,15.27
2018-06-15T00:30:51.035Z,15.25
2018-06-15T00:31:51.141Z,15.24
2018-06-15T00:33:35.074Z,15.22
2018-06-15T00:34:35.971Z,15.21
2018-06-15T00:35:58.551Z,15.24
2018-06-15T00:36:58.340Z,15.22
2018-06-15T00:37:58.370Z,15.24
2018-06-15T00:38:58.390Z,15.25
2018-06-15T00:39:58.730Z,15.25
2018-06-15T00:40:59.320Z,15.25
2018-06-15T00:41:59.026Z,15.27
2018-06-15T00:42:59.246Z,15.27
2018-06-15T00:43:59.002Z,15.27
2018-06-15T00:44:59.754Z,15.27
2018-06-15T00:45:59.640Z,15.25
2018-06-15T00:46:58.214Z,15.25
2018-06-15T00:47:59.274Z,15.22
2018-06-15T00:48:58.619Z,15.22
2018-06-15T00:49:58.965Z,15.21
2018-06-15T00:50:59.366Z,15.21
2018-06-15T00:51:57.821Z,15.22
2018-06-15T00:52:58.544Z,15.22
2018-06-15T00:53:58.763Z,15.21
2018-06-15T00:54:58.399Z,15.21
2018-06-15T00:55:58.368Z,15.19
2018-06-15T00:56:58.102Z,15.19
2018-06-15T00:57:58.949Z,15.17
2018-06-15T00:58:58.815Z,15.15
2018-06-15T00:59:58.771Z,15.17
2018-06-15T01:00:58.969Z,15.15
2018-06-15T01:02:23.472Z,15.17
2018-06-15T01:03:23.440Z,15.17
2018-06-15T01:04:23.506Z,15.15
2018-06-15T01:05:44.883Z,15.11
2018-06-15T01:06:46.049Z,15.10
2018-06-15T01:08:07.238Z,15.10
2018-06-15T01:09:29.556Z,15.06
2018-06-15T01:10:29.575Z,15.04
2018-06-15T01:11:30.726Z,15.03
2018-06-15T01:12:30.441Z,15.00
2018-06-15T01:13:30.398Z,15.00
2018-06-15T01:14:30.177Z,14.99
2018-06-15T01:15:30.264Z,15.00
2018-06-15T01:16:51.942Z,15.02
2018-06-15T01:17:52.218Z,15.02
2018-06-15T01:19:13.901Z,15.03
2018-06-15T01:20:14.350Z,15.06
2018-06-15T01:21:38.090Z,15.06
2018-06-15T01:22:38.288Z,15.07
2018-06-15T01:23:38.235Z,15.07
2018-06-15T01:24:37.896Z,15.09
2018-06-15T01:25:38.633Z,15.09
2018-06-15T01:26:38.803Z,15.11
2018-06-15T01:27:38.701Z,15.14
2018-06-15T01:28:38.859Z,15.14
2018-06-15T01:30:00.236Z,15.15
2018-06-15T01:31:01.027Z,15.15
2018-06-15T01:32:01.096Z,15.14
2018-06-15T01:33:00.814Z,15.15
2018-06-15T01:34:00.812Z,15.15
2018-06-15T01:35:01.043Z,15.15
2018-06-15T01:36:22.462Z,15.17
2018-06-15T01:37:46.594Z,15.17
2018-06-15T01:38:47.507Z,15.17
2018-06-15T01:40:33.889Z,15.19
2018-06-15T01:41:31.941Z,15.21
2018-06-15T01:42:31.496Z,15.19
2018-06-15T01:43:52.913Z,15.21
2018-06-15T01:44:53.960Z,15.18
2018-06-15T01:45:52.940Z,15.15
2018-06-15T01:46:53.805Z,15.14
2018-06-15T01:47:53.805Z,15.14
2018-06-15T01:48:53.844Z,15.15
2018-06-15T01:49:53.820Z,15.15
2018-06-15T01:50:53.500Z,15.17
2018-06-15T01:51:53.331Z,15.14
2018-06-15T01:52:54.100Z,15.11
2018-06-15T01:53:53.266Z,15.15
2018-06-15T01:54:53.775Z,15.11
2018-06-15T01:55:53.799Z,15.10
2018-06-15T01:56:53.735Z,15.10
2018-06-15T01:57:54.635Z,15.10
2018-06-15T01:58:53.406Z,15.11
2018-06-15T01:59:54.269Z,15.15
2018-06-15T02:01:15.003Z,15.17
2018-06-15T02:02:15.141Z,15.15
2018-06-15T02:03:15.103Z,15.14
2018-06-15T02:04:37.527Z,15.17
2018-06-15T02:05:38.599Z,15.17
2018-06-15T02:06:37.627Z,15.17
2018-06-15T02:07:38.390Z,15.17
2018-06-15T02:08:38.278Z,15.19
2018-06-15T02:09:38.183Z,15.21
2018-06-15T02:10:38.667Z,15.21
2018-06-15T02:11:59.496Z,15.21
2018-06-15T02:13:00.064Z,15.19
2018-06-15T02:13:59.857Z,15.18
2018-06-15T02:14:59.838Z,15.17
2018-06-15T02:15:59.676Z,15.15
2018-06-15T02:16:59.949Z,15.14
2018-06-15T02:17:59.895Z,15.11
2018-06-15T02:19:22.085Z,15.14
2018-06-15T02:20:23.109Z,15.14
2018-06-15T02:21:23.122Z,15.15
2018-06-15T02:22:23.300Z,15.15
2018-06-15T02:23:44.972Z,15.14
2018-06-15T02:24:45.909Z,15.11
2018-06-15T02:25:45.776Z,15.11
2018-06-15T02:26:45.744Z,15.10
2018-06-15T02:27:45.717Z,15.10
2018-06-15T02:28:45.356Z,15.11
2018-06-15T02:29:44.966Z,15.09
2018-06-15T02:30:44.887Z,15.07
2018-06-15T02:31:46.564Z,15.06
2018-06-15T02:32:45.303Z,15.03
2018-06-15T02:33:45.862Z,15.02
2018-06-15T02:34:46.205Z,15.00
2018-06-15T02:35:44.897Z,14.99
2018-06-15T02:36:45.040Z,15.00
2018-06-15T02:37:45.193Z,15.02
2018-06-15T02:38:45.584Z,15.02
2018-06-15T02:39:45.588Z,15.00
2018-06-15T02:40:45.654Z,14.99
2018-06-15T02:41:46.661Z,14.96
2018-06-15T02:42:45.702Z,14.94
2018-06-15T02:44:14.910Z,14.94
2018-06-15T02:45:10.120Z,14.96
2018-06-15T02:46:10.073Z,14.96
2018-06-15T02:47:10.048Z,14.99
2018-06-15T02:48:32.545Z,14.99
2018-06-15T02:49:54.687Z,15.00
2018-06-15T02:50:54.524Z,15.00
2018-06-15T02:51:54.477Z,15.02
2018-06-15T02:52:54.510Z,15.02
2018-06-15T02:53:55.788Z,15.02
2018-06-15T02:54:55.200Z,15.02
2018-06-15T02:55:54.503Z,15.03
2018-06-15T02:56:54.638Z,15.03
2018-06-15T02:57:54.825Z,15.04
2018-06-15T02:58:54.984Z,15.04
2018-06-15T02:59:55.052Z,15.04
2018-06-15T03:00:55.128Z,15.04
2018-06-15T03:03:00.639Z,15.03
2018-06-15T03:04:01.395Z,15.00
2018-06-15T03:05:01.372Z,15.03
2018-06-15T03:06:01.431Z,15.03
2018-06-15T03:07:23.880Z,15.06
2018-06-15T03:08:23.765Z,15.07
2018-06-15T03:09:23.875Z,15.06
2018-06-15T03:10:24.030Z,15.07
2018-06-15T03:11:24.104Z,15.07
2018-06-15T03:12:24.102Z,15.07
2018-06-15T03:13:45.521Z,15.07
2018-06-15T03:14:45.499Z,15.07
2018-06-15T03:15:45.804Z,15.07
2018-06-15T03:16:45.475Z,15.07
2018-06-15T03:17:45.476Z,15.07
2018-06-15T03:19:30.021Z,15.06
2018-06-15T03:20:29.830Z,15.07
2018-06-15T03:21:29.664Z,15.09
2018-06-15T03:22:51.316Z,15.11
2018-06-15T03:24:13.950Z,15.14
2018-06-15T03:25:35.420Z,15.15
2018-06-15T03:26:36.490Z,15.14
2018-06-15T03:27:36.423Z,15.14
2018-06-15T03:28:36.187Z,15.17
2018-06-15T03:29:36.238Z,15.15
2018-06-15T03:30:36.381Z,15.15
2018-06-15T03:31:36.423Z,15.17
2018-06-15T03:32:36.488Z,15.17
2018-06-15T03:33:37.096Z,15.18
2018-06-15T03:34:58.211Z,15.19
2018-06-15T03:35:58.324Z,15.18
2018-06-15T03:36:58.363Z,15.18
2018-06-15T03:38:41.856Z,15.17
2018-06-15T03:39:42.715Z,15.18
2018-06-15T03:40:42.619Z,15.19
2018-06-15T03:41:42.575Z,15.19
2018-06-15T03:43:03.946Z,15.19
2018-06-15T03:44:04.723Z,15.19
2018-06-15T03:45:05.598Z,15.21
2018-06-15T03:46:04.527Z,15.19
2018-06-15T03:47:04.940Z,15.22
2018-06-15T03:48:04.925Z,15.25
2018-06-15T03:49:04.997Z,15.28
2018-06-15T03:50:26.491Z,15.33
2018-06-15T03:51:27.472Z,15.33
2018-06-15T03:52:27.469Z,15.36
2018-06-15T03:53:27.336Z,15.35
2018-06-15T03:54:27.676Z,15.36
2018-06-15T03:55:27.491Z,15.37
2018-06-15T03:56:27.456Z,15.37
2018-06-15T03:57:27.265Z,15.39
2018-06-15T03:58:27.374Z,15.40
2018-06-15T03:59:27.528Z,15.43
2018-06-15T04:00:28.439Z,15.43
2018-06-15T04:01:27.300Z,15.42
2018-06-15T04:02:27.055Z,15.42
2018-06-15T04:03:26.997Z,15.40
2018-06-15T04:04:27.037Z,15.43
2018-06-15T04:06:32.115Z,15.44
2018-06-15T04:07:33.638Z,15.44
2018-06-15T04:09:18.500Z,15.47
2018-06-15T04:10:40.363Z,15.46
2018-06-15T04:11:40.585Z,15.49
2018-06-15T04:12:40.557Z,15.51
2018-06-15T04:13:40.362Z,15.51
2018-06-15T04:14:40.769Z,15.52
2018-06-15T04:15:40.735Z,15.55
2018-06-15T04:17:02.838Z,15.54
2018-06-15T04:18:03.943Z,15.54
2018-06-15T04:19:03.723Z,15.55
2018-06-15T04:20:03.779Z,15.58
2018-06-15T04:21:03.771Z,15.58
2018-06-15T04:22:04.084Z,15.61
2018-06-15T04:23:03.168Z,15.64
2018-06-15T04:24:03.483Z,15.67
2018-06-15T04:25:04.063Z,15.67
2018-06-15T04:26:03.258Z,15.70
2018-06-15T04:27:03.454Z,15.73
2018-06-15T04:28:25.151Z,15.72
2018-06-15T04:29:25.208Z,15.73
2018-06-15T04:30:25.879Z,15.76
2018-06-15T04:31:26.071Z,15.76
2018-06-15T04:32:25.124Z,15.77
2018-06-15T04:33:46.460Z,15.77
2018-06-15T04:34:47.050Z,15.79
2018-06-15T04:35:46.683Z,15.79
2018-06-15T04:36:48.120Z,15.80
2018-06-15T04:37:47.874Z,15.84
2018-06-15T04:39:31.732Z,15.90
2018-06-15T04:40:31.698Z,15.92
2018-06-15T04:41:32.204Z,15.94
2018-06-15T04:42:53.222Z,15.94
2018-06-15T04:43:53.361Z,15.95
2018-06-15T04:44:53.371Z,15.97
2018-06-15T04:45:53.471Z,15.98
2018-06-15T04:46:54.227Z,15.97
2018-06-15T04:47:54.347Z,15.98
2018-06-15T04:48:53.505Z,15.98
2018-06-15T04:50:16.313Z,16.00
2018-06-15T04:51:15.440Z,16.01
2018-06-15T04:52:15.252Z,16.05
2018-06-15T04:53:15.179Z,16.04
2018-06-15T04:54:15.139Z,16.05
2018-06-15T04:55:16.374Z,16.05
2018-06-15T04:56:36.858Z,16.05
2018-06-15T04:57:40.769Z,16.05
2018-06-15T04:58:37.824Z,16.08
2018-06-15T04:59:59.438Z,16.09
2018-06-15T05:00:59.445Z,16.10
2018-06-15T05:01:59.774Z,16.12
2018-06-15T05:02:59.797Z,16.15
2018-06-15T05:03:59.988Z,16.13
2018-06-15T05:04:59.757Z,16.13
2018-06-15T05:05:59.872Z,16.15
2018-06-15T05:07:00.150Z,16.20
2018-06-15T05:08:00.390Z,16.20
2018-06-15T05:08:59.364Z,16.24
2018-06-15T05:10:22.511Z,16.26
2018-06-15T05:11:23.608Z,16.26
2018-06-15T05:12:22.515Z,16.26
2018-06-15T05:13:44.171Z,16.28
2018-06-15T05:14:44.293Z,16.31
2018-06-15T05:16:05.772Z,16.33
2018-06-15T05:17:06.631Z,16.35
2018-06-15T05:18:17.919Z,16.35
2018-06-15T05:19:06.938Z,16.33
2018-06-15T05:20:06.841Z,16.32
2018-06-15T05:21:06.724Z,16.33
2018-06-15T05:22:06.606Z,16.35
2018-06-15T05:23:06.539Z,16.33
2018-06-15T05:24:06.739Z,16.36
2018-06-15T05:25:06.979Z,16.38
2018-06-15T05:26:06.132Z,16.41
2018-06-15T05:27:28.771Z,16.43
2018-06-15T05:28:28.966Z,16.47
2018-06-15T05:29:51.565Z,16.49
2018-06-15T05:30:51.578Z,16.50
2018-06-15T05:31:51.704Z,16.47
2018-06-15T05:32:51.887Z,16.50
2018-06-15T05:33:51.885Z,16.47
2018-06-15T05:34:50.800Z,16.49
2018-06-15T05:36:12.354Z,16.50
2018-06-15T05:37:13.001Z,16.53
2018-06-15T05:38:34.749Z,16.53
2018-06-15T05:39:35.745Z,16.60
2018-06-15T05:40:35.816Z,16.66
2018-06-15T05:41:59.381Z,16.72
2018-06-15T05:42:59.102Z,16.74
2018-06-15T05:44:19.892Z,16.79
2018-06-15T05:45:20.130Z,16.86
2018-06-15T05:46:41.996Z,16.91
2018-06-15T05:47:43.744Z,16.93
2018-06-15T05:48:42.599Z,16.94
2018-06-15T05:49:42.779Z,16.99
2018-06-15T05:50:43.333Z,17.04
2018-06-15T05:51:42.448Z,17.08
2018-06-15T05:53:04.279Z,17.15
2018-06-15T05:54:04.124Z,17.23
2018-06-15T05:55:04.228Z,17.30
2018-06-15T05:56:04.436Z,17.30
2018-06-15T05:57:04.567Z,17.33
2018-06-15T05:58:05.365Z,17.38
2018-06-15T05:59:05.631Z,17.42
2018-06-15T06:00:04.679Z,17.48
2018-06-15T06:01:04.628Z,17.57
2018-06-15T06:02:04.926Z,17.64
2018-06-15T06:03:05.232Z,17.68
2018-06-15T06:04:05.811Z,17.71
2018-06-15T06:05:48.788Z,17.79
2018-06-15T06:06:49.266Z,17.85
2018-06-15T06:07:49.570Z,17.86
2018-06-15T06:09:56.369Z,18.07
2018-06-15T06:10:56.475Z,18.16
2018-06-15T06:11:56.822Z,18.23
2018-06-15T06:12:56.688Z,18.20
2018-06-15T06:13:56.593Z,18.15
2018-06-15T06:14:56.764Z,18.15
2018-06-15T06:15:57.634Z,18.16
2018-06-15T06:16:56.531Z,18.20
2018-06-15T06:18:18.758Z,18.31
2018-06-15T06:19:19.547Z,18.34
2018-06-15T06:20:20.696Z,18.34
2018-06-15T06:21:19.480Z,18.37
2018-06-15T06:22:19.342Z,18.40
2018-06-15T06:23:19.422Z,18.41
2018-06-15T06:24:19.059Z,18.40
2018-06-15T06:25:18.729Z,18.40
2018-06-15T06:26:19.264Z,18.37
2018-06-15T06:27:42.846Z,18.41
2018-06-15T06:28:42.908Z,18.40
2018-06-15T06:29:43.225Z,18.38
2018-06-15T06:30:43.364Z,18.37
2018-06-15T06:31:45.316Z,18.37
2018-06-15T06:32:43.315Z,18.31
2018-06-15T06:33:43.522Z,18.28
2018-06-15T06:34:43.561Z,18.26
2018-06-15T06:36:05.883Z,18.16
2018-06-15T06:37:28.047Z,18.18
2018-06-15T06:38:28.883Z,18.15
2018-06-15T06:39:28.814Z,18.13
2018-06-15T06:40:28.821Z,18.11
2018-06-15T06:41:28.859Z,18.15
2018-06-15T06:42:28.819Z,18.16
2018-06-15T06:43:53.838Z,18.19
2018-06-15T06:44:51.880Z,18.18
2018-06-15T06:45:52.137Z,18.19
2018-06-15T06:46:52.618Z,18.22
2018-06-15T06:48:36.862Z,18.31
2018-06-15T06:49:37.173Z,18.40
2018-06-15T06:51:00.043Z,18.50
2018-06-15T06:51:59.176Z,18.58
2018-06-15T06:52:59.281Z,18.62
2018-06-15T06:54:21.302Z,18.66
2018-06-15T06:55:21.152Z,18.77
2018-06-15T06:56:22.638Z,18.86
2018-06-15T06:57:23.634Z,18.96
2018-06-15T06:58:21.669Z,19.02
2018-06-15T06:59:21.360Z,19.11
2018-06-15T07:00:21.684Z,19.14
2018-06-15T07:01:21.541Z,19.21
2018-06-15T07:02:44.092Z,19.33
2018-06-15T07:03:44.746Z,19.37
2018-06-15T07:04:43.802Z,19.40
2018-06-15T07:05:44.436Z,19.49
2018-06-15T07:06:43.164Z,19.54
2018-06-15T07:07:44.278Z,19.64
2018-06-15T07:08:44.056Z,19.71
2018-06-15T07:10:07.621Z,19.79
2018-06-15T07:11:08.405Z,19.84
2018-06-15T07:12:08.310Z,19.85
2018-06-15T07:13:08.965Z,19.86
2018-06-15T07:14:08.273Z,19.89
2018-06-15T07:15:09.100Z,19.88
2018-06-15T07:16:08.154Z,19.92
2018-06-15T07:17:09.392Z,19.96
2018-06-15T07:18:08.389Z,19.96
2018-06-15T07:19:08.297Z,19.86
2018-06-15T07:20:31.555Z,19.84
2018-06-15T07:21:31.665Z,19.89
2018-06-15T07:22:53.496Z,19.99
2018-06-15T07:24:16.323Z,20.07
2018-06-15T07:25:17.763Z,20.03
2018-06-15T07:26:17.096Z,19.94
2018-06-15T07:27:17.916Z,19.96
2018-06-15T07:28:17.148Z,20.04
2018-06-15T07:29:17.642Z,20.14
2018-06-15T07:30:39.742Z,20.19
2018-06-15T07:32:02.034Z,20.34
2018-06-15T07:33:02.144Z,20.39
2018-06-15T07:34:02.163Z,20.39
2018-06-15T07:35:02.129Z,20.40
2018-06-15T07:36:02.303Z,20.39
2018-06-15T07:37:02.310Z,20.47
2018-06-15T07:38:02.381Z,20.44
2018-06-15T07:39:02.542Z,20.47
2018-06-15T07:40:02.773Z,20.48
2018-06-15T07:41:03.087Z,20.48
2018-06-15T07:42:44.426Z,20.52
2018-06-15T07:43:45.284Z,20.60
2018-06-15T07:44:45.493Z,20.72
2018-06-15T07:46:07.423Z,20.66
2018-06-15T07:47:29.441Z,20.59
2018-06-15T07:48:30.466Z,20.59
2018-06-15T07:49:30.392Z,20.48
2018-06-15T07:50:30.521Z,20.50
2018-06-15T07:51:29.883Z,20.58
2018-06-15T07:52:30.110Z,20.67
2018-06-15T07:53:30.274Z,20.75
2018-06-15T07:54:30.246Z,20.80
2018-06-15T07:55:30.147Z,20.84
2018-06-15T07:56:30.263Z,20.87
2018-06-15T07:57:30.402Z,20.95
2018-06-15T07:58:30.233Z,21.02
2018-06-15T07:59:30.181Z,21.03
2018-06-15T08:00:29.976Z,21.05
2018-06-15T08:01:29.774Z,21.12
2018-06-15T08:02:29.925Z,21.22
2018-06-15T08:03:29.794Z,21.33
2018-06-15T08:04:29.565Z,21.39
2018-06-15T08:05:29.240Z,21.36
2018-06-15T08:06:30.488Z,21.33
2018-06-15T08:07:30.261Z,21.27
2018-06-15T08:08:30.121Z,21.22
2018-06-15T08:09:30.088Z,21.24
2018-06-15T08:10:29.899Z,21.29
2018-06-15T08:11:29.791Z,21.33
2018-06-15T08:12:29.548Z,21.45
2018-06-15T08:13:29.674Z,21.52
2018-06-15T08:14:29.719Z,21.60
2018-06-15T08:15:29.833Z,21.62
2018-06-15T08:16:29.566Z,21.61
2018-06-15T08:17:29.624Z,21.64
2018-06-15T08:18:29.516Z,21.67
2018-06-15T08:19:29.704Z,21.70
2018-06-15T08:20:29.938Z,21.75
2018-06-15T08:22:13.501Z,21.58
2018-06-15T08:23:57.743Z,21.77
2018-06-15T08:24:58.694Z,21.82
2018-06-15T08:25:58.033Z,21.75
2018-06-15T08:26:58.362Z,21.76
2018-06-15T08:27:59.137Z,21.82
2018-06-15T08:28:58.258Z,21.82
2018-06-15T08:29:58.368Z,21.87
2018-06-15T08:30:58.649Z,21.95
2018-06-15T08:31:58.583Z,22.02
2018-06-15T08:32:58.831Z,22.08
2018-06-15T08:33:58.838Z,22.11
2018-06-15T08:34:58.023Z,22.13
2018-06-15T08:35:58.129Z,22.29
2018-06-15T08:36:58.192Z,22.44
2018-06-15T08:37:58.185Z,22.59
2018-06-15T08:38:58.260Z,22.72
2018-06-15T08:40:20.212Z,22.76
2018-06-15T08:42:25.197Z,22.96
2018-06-15T08:43:26.305Z,23.06
2018-06-15T08:44:25.419Z,23.27
2018-06-15T08:45:25.690Z,23.41
2018-06-15T08:46:25.574Z,23.51
2018-06-15T08:47:25.824Z,23.48
2018-06-15T08:48:25.755Z,23.40
2018-06-15T08:49:25.968Z,23.32
2018-06-15T08:50:47.887Z,23.20
2018-06-15T08:52:54.347Z,22.87
2018-06-15T08:53:54.389Z,22.72
2018-06-15T08:54:54.230Z,22.63
2018-06-15T08:55:54.429Z,22.45
2018-06-15T08:56:54.474Z,22.29
2018-06-15T08:58:16.123Z,22.15
2018-06-15T08:59:16.759Z,22.08
2018-06-15T09:00:17.610Z,22.07
2018-06-15T09:01:16.685Z,22.07
2018-06-15T09:02:38.219Z,22.07
2018-06-15T09:03:39.377Z,22.04
2018-06-15T09:04:38.534Z,21.96
2018-06-15T09:06:00.654Z,21.96
2018-06-15T09:07:22.492Z,22.00
2018-06-15T09:08:23.246Z,22.00
2018-06-15T09:09:23.361Z,21.98
2018-06-15T09:10:44.219Z,22.08
2018-06-15T09:11:44.501Z,22.22
2018-06-15T09:12:44.601Z,22.30
2018-06-15T09:13:44.868Z,22.39
2018-06-15T09:14:45.284Z,22.51
2018-06-15T09:15:44.274Z,22.65
2018-06-15T09:16:44.786Z,22.84
2018-06-15T09:17:44.989Z,23.03
2018-06-15T09:18:45.131Z,23.17
2018-06-15T09:20:28.767Z,23.51
2018-06-15T09:22:12.647Z,24.30
2018-06-15T09:23:12.593Z,25.11
2018-06-15T09:24:57.124Z,25.21
2018-06-15T09:25:57.401Z,25.04
2018-06-15T09:26:57.621Z,24.78
2018-06-15T09:27:57.663Z,24.47
2018-06-15T09:28:57.989Z,24.23
2018-06-15T09:29:56.889Z,24.11
2018-06-15T09:31:20.078Z,23.81
2018-06-15T09:32:20.437Z,23.59
2018-06-15T09:33:20.358Z,23.44
2018-06-15T09:34:20.118Z,23.18
2018-06-15T09:35:41.959Z,22.88
2018-06-15T09:37:03.758Z,22.81
2018-06-15T09:38:04.806Z,22.75
2018-06-15T09:39:04.876Z,22.69
2018-06-15T09:40:06.312Z,22.63
2018-06-15T09:41:04.412Z,22.51
2018-06-15T09:42:04.415Z,22.41
2018-06-15T09:43:05.175Z,22.41
2018-06-15T09:44:26.030Z,22.29
2018-06-15T09:45:27.918Z,22.23
2018-06-15T09:46:26.899Z,22.15
2018-06-15T09:47:49.357Z,22.02
2018-06-15T09:48:49.892Z,21.95
2018-06-15T09:49:49.758Z,21.87
2018-06-15T09:50:49.599Z,21.87
2018-06-15T09:51:49.607Z,21.85
2018-06-15T09:52:49.723Z,21.89
2018-06-15T09:53:49.833Z,21.91
2018-06-15T09:54:49.875Z,21.87
2018-06-15T09:56:12.029Z,21.87
2018-06-15T09:57:12.065Z,21.87
2018-06-15T09:58:11.950Z,21.85
2018-06-15T09:59:13.004Z,21.83
2018-06-15T10:00:12.260Z,21.80
2018-06-15T10:01:37.380Z,21.72
2018-06-15T10:02:37.147Z,21.69
2018-06-15T10:03:59.042Z,21.61
2018-06-15T10:05:44.708Z,21.67
2018-06-15T10:07:06.978Z,21.73
2018-06-15T10:08:06.982Z,21.76
2018-06-15T10:09:07.812Z,21.76
2018-06-15T10:10:28.459Z,21.83
2018-06-15T10:11:51.525Z,21.85
2018-06-15T10:12:51.672Z,21.93
2018-06-15T10:13:51.693Z,22.06
2018-06-15T10:14:51.979Z,22.18
2018-06-15T10:15:51.890Z,22.54
2018-06-15T10:17:14.042Z,22.80
2018-06-15T10:18:14.664Z,22.87
2018-06-15T10:19:14.763Z,22.94
2018-06-15T10:20:15.050Z,22.96
2018-06-15T10:21:36.013Z,23.08
2018-06-15T10:22:36.830Z,23.20
2018-06-15T10:24:22.169Z,23.32
2018-06-15T10:25:22.125Z,23.44
2018-06-15T10:26:22.033Z,23.51
2018-06-15T10:27:22.375Z,23.65
2018-06-15T10:28:24.556Z,23.76
2018-06-15T10:29:45.076Z,23.95
2018-06-15T10:30:45.125Z,24.11
2018-06-15T10:31:44.767Z,24.29
2018-06-15T10:32:45.756Z,24.61
2018-06-15T10:33:44.650Z,25.13
2018-06-15T10:34:44.612Z,25.51
2018-06-15T10:35:44.782Z,25.75
2018-06-15T10:36:44.857Z,25.77
2018-06-15T10:37:45.171Z,25.77
2018-06-15T10:38:45.229Z,25.73
2018-06-15T10:39:44.194Z,25.81
2018-06-15T10:40:45.091Z,25.84
2018-06-15T10:41:46.087Z,25.69
2018-06-15T10:42:46.228Z,25.44
2018-06-15T10:43:44.225Z,25.31
2018-06-15T10:44:44.448Z,25.32
2018-06-15T10:45:44.531Z,25.26
2018-06-15T10:46:44.826Z,25.17
2018-06-15T10:47:44.844Z,24.99
2018-06-15T10:48:45.084Z,24.98
2018-06-15T10:49:43.980Z,24.98
2018-06-15T10:50:44.818Z,25.01
2018-06-15T10:51:44.728Z,24.89
2018-06-15T10:52:44.788Z,24.78
2018-06-15T10:53:44.764Z,24.73
2018-06-15T10:55:06.410Z,24.70
2018-06-15T10:56:07.515Z,24.57
2018-06-15T10:57:06.319Z,24.36
2018-06-15T10:58:07.324Z,24.16
2018-06-15T10:59:07.603Z,24.14
2018-06-15T11:00:06.546Z,24.18
2018-06-15T11:01:06.583Z,24.14
2018-06-15T11:02:07.250Z,23.98
2018-06-15T11:03:07.220Z,24.01
2018-06-15T11:04:07.213Z,24.06
2018-06-15T11:05:07.846Z,24.18
2018-06-15T11:06:06.800Z,24.35
2018-06-15T11:07:08.446Z,24.43
2018-06-15T11:08:06.634Z,24.58
2018-06-15T11:09:07.510Z,24.73
2018-06-15T11:10:07.187Z,24.81
2018-06-15T11:11:07.510Z,24.93
2018-06-15T11:12:06.511Z,25.04
2018-06-15T11:13:06.666Z,25.10
2018-06-15T11:14:51.851Z,25.26
2018-06-15T11:16:14.862Z,25.17
2018-06-15T11:17:37.563Z,25.36
2018-06-15T11:18:38.340Z,25.59
2018-06-15T11:19:37.542Z,25.75
2018-06-15T11:20:37.809Z,26.13
2018-06-15T11:21:38.314Z,26.36
2018-06-15T11:22:59.983Z,26.68
2018-06-15T11:24:10.204Z,27.00
2018-06-15T11:25:00.336Z,27.74
2018-06-15T11:26:00.481Z,28.41
2018-06-15T11:27:00.772Z,29.17
2018-06-15T11:28:00.026Z,29.54
2018-06-15T11:29:01.770Z,29.88
2018-06-15T11:30:00.943Z,29.69
2018-06-15T11:31:23.998Z,29.49
2018-06-15T11:32:23.964Z,29.71
2018-06-15T11:33:24.669Z,29.75
2018-06-15T11:34:47.226Z,30.19
2018-06-15T11:35:48.440Z,30.19
2018-06-15T11:36:47.585Z,30.70
2018-06-15T11:37:47.665Z,30.90
2018-06-15T11:38:49.101Z,31.18
2018-06-15T11:40:33.101Z,31.46
2018-06-15T11:42:17.172Z,31.14
2018-06-15T11:43:40.766Z,30.70
2018-06-15T11:44:40.140Z,30.28
2018-06-15T11:45:40.709Z,29.88
2018-06-15T11:46:40.864Z,29.44
2018-06-15T11:47:41.774Z,29.50
2018-06-15T11:48:39.463Z,29.24
2018-06-15T11:49:41.830Z,28.85
2018-06-15T11:50:40.999Z,28.63
2018-06-15T11:52:24.963Z,29.19
2018-06-15T11:53:25.484Z,29.57
2018-06-15T11:54:25.964Z,30.10
2018-06-15T11:55:27.444Z,30.62
2018-06-15T11:56:24.922Z,30.77
2018-06-15T11:57:48.542Z,30.87
2018-06-15T11:58:48.733Z,30.63
2018-06-15T11:59:49.104Z,30.85
2018-06-15T12:01:11.191Z,31.05
2018-06-15T12:02:12.099Z,31.28
2018-06-15T12:03:33.363Z,31.37
2018-06-15T12:04:33.469Z,31.24
2018-06-15T12:05:33.436Z,31.39
2018-06-15T12:06:33.654Z,31.36
2018-06-15T12:07:56.717Z,31.47
2018-06-15T12:09:19.205Z,31.73
2018-06-15T12:10:19.667Z,31.81
2018-06-15T12:11:19.756Z,32.01
2018-06-15T12:12:20.394Z,31.96
2018-06-15T12:14:04.005Z,31.89
2018-06-15T12:15:04.985Z,31.80
2018-06-15T12:16:04.125Z,31.93
2018-06-15T12:17:04.236Z,32.04
2018-06-15T12:18:29.119Z,31.70
2018-06-15T12:19:30.387Z,31.52
2018-06-15T12:20:29.417Z,31.65
2018-06-15T12:21:52.241Z,31.40
2018-06-15T12:22:52.155Z,31.59
2018-06-15T12:23:52.600Z,31.65
2018-06-15T12:24:52.650Z,31.27
2018-06-15T12:25:52.928Z,30.87
2018-06-15T12:26:52.107Z,30.40
2018-06-15T12:27:52.536Z,30.44
2018-06-15T12:28:52.700Z,30.68
2018-06-15T12:29:52.634Z,31.21
2018-06-15T12:30:53.406Z,31.61
2018-06-15T12:31:52.680Z,31.87
2018-06-15T12:32:52.967Z,32.29
2018-06-15T12:34:16.253Z,32.55
2018-06-15T12:35:16.825Z,32.55
2018-06-15T12:36:17.180Z,32.83
2018-06-15T12:37:16.294Z,33.15
2018-06-15T12:38:16.480Z,33.28
2018-06-15T12:39:16.429Z,33.37
2018-06-15T12:40:16.481Z,33.58
2018-06-15T12:41:16.662Z,33.69
2018-06-15T12:43:01.179Z,33.57
2018-06-15T12:44:01.515Z,33.71
2018-06-15T12:45:23.353Z,33.90
2018-06-15T12:46:23.577Z,34.01
2018-06-15T12:47:23.742Z,34.06
2018-06-15T12:48:24.043Z,34.17
2018-06-15T12:49:24.060Z,34.18
2018-06-15T12:50:23.136Z,34.06
2018-06-15T12:51:23.960Z,34.10
2018-06-15T12:52:24.587Z,34.02
2018-06-15T12:54:08.283Z,33.53
2018-06-15T12:55:08.400Z,33.46
2018-06-15T12:56:08.436Z,33.34
2018-06-15T12:57:07.772Z,33.30
2018-06-15T12:58:33.532Z,33.58
2018-06-15T12:59:36.644Z,33.81
2018-06-15T13:00:32.053Z,33.87
2018-06-15T13:01:32.152Z,34.17
2018-06-15T13:02:33.626Z,34.39
2018-06-15T13:03:53.725Z,34.67
2018-06-15T13:04:55.059Z,34.73
2018-06-15T13:06:50.033Z,34.10
2018-06-15T13:07:50.765Z,33.55
2018-06-15T13:08:51.677Z,33.04
2018-06-15T13:09:49.035Z,32.49
2018-06-15T13:10:48.183Z,31.97
2018-06-15T13:11:48.803Z,31.46
2018-06-15T13:12:50.515Z,31.03
2018-06-15T13:13:51.006Z,30.68
2018-06-15T13:14:48.494Z,30.30
2018-06-15T13:15:54.534Z,29.88
2018-06-15T13:16:50.717Z,29.54
2018-06-15T13:17:55.631Z,29.41
2018-06-15T13:18:49.675Z,29.17
2018-06-15T13:19:48.998Z,28.96
2018-06-15T13:20:48.436Z,28.70
2018-06-15T13:21:48.670Z,28.45
2018-06-15T13:22:49.163Z,28.35
2018-06-15T13:23:48.332Z,28.37
2018-06-15T13:24:48.705Z,28.14
2018-06-15T13:25:48.964Z,27.96
2018-06-15T13:26:50.171Z,27.96
2018-06-15T13:27:48.550Z,27.80
2018-06-15T13:28:48.924Z,27.67
2018-06-15T13:29:49.415Z,28.08
2018-06-15T13:30:48.772Z,28.52
2018-06-15T13:31:48.405Z,28.45
2018-06-15T13:32:49.580Z,28.27
2018-06-15T13:33:49.863Z,28.10
2018-06-15T13:34:49.297Z,27.90
2018-06-15T13:36:10.857Z,27.64
2018-06-15T13:37:11.284Z,27.55
2018-06-15T13:38:10.480Z,27.60
2018-06-15T13:39:32.600Z,28.32
2018-06-15T13:40:33.049Z,28.75
2018-06-15T13:41:33.366Z,28.66
2018-06-15T13:42:54.778Z,28.32
2018-06-15T13:43:55.195Z,28.25
2018-06-15T13:44:57.024Z,28.15
2018-06-15T13:45:55.936Z,28.37
2018-06-15T13:46:54.980Z,28.39
2018-06-15T13:47:54.698Z,28.30
2018-06-15T13:48:54.869Z,28.26
2018-06-15T13:49:55.276Z,28.17
2018-06-15T13:50:55.549Z,28.02
2018-06-15T13:51:59.504Z,27.86
2018-06-15T13:52:58.997Z,27.83
2018-06-15T13:53:55.443Z,28.42
2018-06-15T13:55:18.957Z,29.07
2018-06-15T13:56:19.188Z,29.10
2018-06-15T13:57:19.305Z,29.07
2018-06-15T13:58:18.604Z,28.75